sensor_id;sensor_type;location;lat;lon;timestamp;temperature;humidity
26947;DHT22;14501;52.282;10.560;2022-08-21T00:01:05;16.50;99.90
26947;DHT22;14501;52.282;10.560;2022-08-21T00:03:32;16.40;99.90
26947;DHT22;14501;52.282;10.560;2022-08-21T00:05:58;16.30;99.90
26947;DHT22;14501;52.282;10.560;2022-08-21T00:08:23;16.20;99.90
26947;DHT22;14501;52.282;10.560;2022-08-21T00:10:50;16.20;99.90
26947;DHT22;14501;52.282;10.560;2022-08-21T00:13:17;16.10;99.90
26947;DHT22;14501;52.282;10.560;2022-08-21T00:15:43;16.10;99.90
26947;DHT22;14501;52.282;10.560;2022-08-21T00:18:10;16.00;99.90
26947;DHT22;14501;52.282;10.560;2022-08-21T00:20:37;15.90;99.90
26947;DHT22;14501;52.282;10.560;2022-08-21T00:23:03;15.70;99.90
26947;DHT22;14501;52.282;10.560;2022-08-21T00:25:29;15.70;99.90
26947;DHT22;14501;52.282;10.560;2022-08-21T00:27:55;15.70;99.90
26947;DHT22;14501;52.282;10.560;2022-08-21T00:30:22;15.60;99.90
26947;DHT22;14501;52.282;10.560;2022-08-21T00:32:49;15.60;99.90
26947;DHT22;14501;52.282;10.560;2022-08-21T00:35:19;15.50;99.90
26947;DHT22;14501;52.282;10.560;2022-08-21T00:37:45;15.40;99.90
26947;DHT22;14501;52.282;10.560;2022-08-21T00:40:16;15.40;99.90
26947;DHT22;14501;52.282;10.560;2022-08-21T00:42:42;15.30;99.90
26947;DHT22;14501;52.282;10.560;2022-08-21T00:45:09;15.30;99.90
26947;DHT22;14501;52.282;10.560;2022-08-21T00:47:35;15.20;99.90
26947;DHT22;14501;52.282;10.560;2022-08-21T00:50:02;15.10;99.90
26947;DHT22;14501;52.282;10.560;2022-08-21T00:52:30;15.10;99.90
26947;DHT22;14501;52.282;10.560;2022-08-21T00:54:57;15.10;99.90
26947;DHT22;14501;52.282;10.560;2022-08-21T00:57:29;15.00;99.90
26947;DHT22;14501;52.282;10.560;2022-08-21T00:59:58;15.10;99.90
26947;DHT22;14501;52.282;10.560;2022-08-21T01:02:25;15.00;99.90
26947;DHT22;14501;52.282;10.560;2022-08-21T01:04:51;15.00;99.90
26947;DHT22;14501;52.282;10.560;2022-08-21T01:07:17;15.00;99.90
26947;DHT22;14501;52.282;10.560;2022-08-21T01:09:44;15.00;99.90
26947;DHT22;14501;52.282;10.560;2022-08-21T01:12:11;14.90;99.90
26947;DHT22;14501;52.282;10.560;2022-08-21T01:14:38;14.90;99.90
26947;DHT22;14501;52.282;10.560;2022-08-21T01:17:05;14.90;99.90
26947;DHT22;14501;52.282;10.560;2022-08-21T01:19:32;14.90;99.90
26947;DHT22;14501;52.282;10.560;2022-08-21T01:21:58;14.90;99.90
26947;DHT22;14501;52.282;10.560;2022-08-21T01:24:25;14.80;99.90
26947;DHT22;14501;52.282;10.560;2022-08-21T01:26:51;14.80;99.90
26947;DHT22;14501;52.282;10.560;2022-08-21T01:31:59;14.70;99.90
26947;DHT22;14501;52.282;10.560;2022-08-21T01:34:28;14.70;99.90
26947;DHT22;14501;52.282;10.560;2022-08-21T01:36:54;14.60;99.90
26947;DHT22;14501;52.282;10.560;2022-08-21T01:39:20;14.60;99.90
26947;DHT22;14501;52.282;10.560;2022-08-21T01:41:45;14.60;99.90
26947;DHT22;14501;52.282;10.560;2022-08-21T01:44:11;14.50;99.90
26947;DHT22;14501;52.282;10.560;2022-08-21T01:46:37;14.50;99.90
26947;DHT22;14501;52.282;10.560;2022-08-21T01:49:04;14.50;99.90
26947;DHT22;14501;52.282;10.560;2022-08-21T01:51:30;14.40;99.90
26947;DHT22;14501;52.282;10.560;2022-08-21T01:53:55;14.40;99.90
26947;DHT22;14501;52.282;10.560;2022-08-21T01:56:21;14.40;99.90
26947;DHT22;14501;52.282;10.560;2022-08-21T01:58:48;14.30;99.90
26947;DHT22;14501;52.282;10.560;2022-08-21T02:01:14;14.30;99.90
26947;DHT22;14501;52.282;10.560;2022-08-21T02:03:40;14.30;99.90
26947;DHT22;14501;52.282;10.560;2022-08-21T02:06:07;14.30;99.90
26947;DHT22;14501;52.282;10.560;2022-08-21T02:08:33;14.30;99.90
26947;DHT22;14501;52.282;10.560;2022-08-21T02:10:59;14.20;99.90
26947;DHT22;14501;52.282;10.560;2022-08-21T02:13:25;14.20;99.90
26947;DHT22;14501;52.282;10.560;2022-08-21T02:15:51;14.20;99.90
26947;DHT22;14501;52.282;10.560;2022-08-21T02:18:17;14.20;99.90
26947;DHT22;14501;52.282;10.560;2022-08-21T02:20:47;14.10;99.90
26947;DHT22;14501;52.282;10.560;2022-08-21T02:23:14;14.10;99.90
26947;DHT22;14501;52.282;10.560;2022-08-21T02:25:40;14.10;99.90
26947;DHT22;14501;52.282;10.560;2022-08-21T02:28:13;14.10;99.90
26947;DHT22;14501;52.282;10.560;2022-08-21T02:30:45;14.10;99.90
26947;DHT22;14501;52.282;10.560;2022-08-21T02:33:12;14.10;99.90
26947;DHT22;14501;52.282;10.560;2022-08-21T02:35:40;14.10;99.90
26947;DHT22;14501;52.282;10.560;2022-08-21T02:38:09;14.10;99.90
26947;DHT22;14501;52.282;10.560;2022-08-21T02:40:38;14.00;99.90
26947;DHT22;14501;52.282;10.560;2022-08-21T02:43:05;14.00;99.90
26947;DHT22;14501;52.282;10.560;2022-08-21T02:45:32;13.90;99.90
26947;DHT22;14501;52.282;10.560;2022-08-21T02:48:02;13.90;99.90
26947;DHT22;14501;52.282;10.560;2022-08-21T02:50:32;13.90;99.90
26947;DHT22;14501;52.282;10.560;2022-08-21T02:52:59;13.90;99.90
26947;DHT22;14501;52.282;10.560;2022-08-21T02:55:27;13.90;99.90
26947;DHT22;14501;52.282;10.560;2022-08-21T02:57:54;13.90;99.90
26947;DHT22;14501;52.282;10.560;2022-08-21T03:00:23;13.80;99.90
26947;DHT22;14501;52.282;10.560;2022-08-21T03:02:50;13.80;99.90
26947;DHT22;14501;52.282;10.560;2022-08-21T03:05:17;13.80;99.90
26947;DHT22;14501;52.282;10.560;2022-08-21T03:07:44;13.80;99.90
26947;DHT22;14501;52.282;10.560;2022-08-21T03:10:11;13.80;99.90
26947;DHT22;14501;52.282;10.560;2022-08-21T03:12:37;13.70;99.90
26947;DHT22;14501;52.282;10.560;2022-08-21T03:15:09;13.70;99.90
26947;DHT22;14501;52.282;10.560;2022-08-21T03:17:36;13.70;99.90
26947;DHT22;14501;52.282;10.560;2022-08-21T03:20:04;13.80;99.90
26947;DHT22;14501;52.282;10.560;2022-08-21T03:22:30;13.80;99.90
26947;DHT22;14501;52.282;10.560;2022-08-21T03:24:56;13.80;99.90
26947;DHT22;14501;52.282;10.560;2022-08-21T03:27:22;13.80;99.90
26947;DHT22;14501;52.282;10.560;2022-08-21T03:29:52;13.70;99.90
26947;DHT22;14501;52.282;10.560;2022-08-21T03:32:18;13.70;99.90
26947;DHT22;14501;52.282;10.560;2022-08-21T03:34:45;13.70;99.90
26947;DHT22;14501;52.282;10.560;2022-08-21T03:37:11;13.70;99.90
26947;DHT22;14501;52.282;10.560;2022-08-21T03:39:37;13.70;99.90
26947;DHT22;14501;52.282;10.560;2022-08-21T03:42:03;13.60;99.90
26947;DHT22;14501;52.282;10.560;2022-08-21T03:44:30;13.60;99.90
26947;DHT22;14501;52.282;10.560;2022-08-21T03:46:57;13.60;99.90
26947;DHT22;14501;52.282;10.560;2022-08-21T03:49:23;13.50;99.90
26947;DHT22;14501;52.282;10.560;2022-08-21T03:51:49;13.50;99.90
26947;DHT22;14501;52.282;10.560;2022-08-21T03:54:14;13.40;99.90
26947;DHT22;14501;52.282;10.560;2022-08-21T03:56:40;13.40;99.90
26947;DHT22;14501;52.282;10.560;2022-08-21T03:59:06;13.40;99.90
26947;DHT22;14501;52.282;10.560;2022-08-21T04:01:32;13.40;99.90
26947;DHT22;14501;52.282;10.560;2022-08-21T04:03:58;13.30;99.90
26947;DHT22;14501;52.282;10.560;2022-08-21T04:06:24;13.30;99.90
26947;DHT22;14501;52.282;10.560;2022-08-21T04:08:52;13.30;99.90
26947;DHT22;14501;52.282;10.560;2022-08-21T04:11:18;13.20;99.90
26947;DHT22;14501;52.282;10.560;2022-08-21T04:13:43;13.20;99.90
26947;DHT22;14501;52.282;10.560;2022-08-21T04:16:09;13.30;99.90
26947;DHT22;14501;52.282;10.560;2022-08-21T04:18:35;13.30;99.90
26947;DHT22;14501;52.282;10.560;2022-08-21T04:21:01;13.30;99.90
26947;DHT22;14501;52.282;10.560;2022-08-21T04:25:54;13.30;99.90
26947;DHT22;14501;52.282;10.560;2022-08-21T04:33:13;13.20;99.90
26947;DHT22;14501;52.282;10.560;2022-08-21T04:35:39;13.20;99.90
26947;DHT22;14501;52.282;10.560;2022-08-21T04:38:07;13.20;99.90
26947;DHT22;14501;52.282;10.560;2022-08-21T04:40:33;13.30;99.90
26947;DHT22;14501;52.282;10.560;2022-08-21T04:43:02;13.30;99.90
26947;DHT22;14501;52.282;10.560;2022-08-21T04:45:35;13.20;99.90
26947;DHT22;14501;52.282;10.560;2022-08-21T04:48:03;13.30;99.90
26947;DHT22;14501;52.282;10.560;2022-08-21T04:50:42;13.30;99.90
26947;DHT22;14501;52.282;10.560;2022-08-21T04:53:36;13.30;99.90
26947;DHT22;14501;52.282;10.560;2022-08-21T04:56:07;13.30;99.90
26947;DHT22;14501;52.282;10.560;2022-08-21T04:58:34;13.30;99.90
26947;DHT22;14501;52.282;10.560;2022-08-21T05:01:03;13.40;99.90
26947;DHT22;14501;52.282;10.560;2022-08-21T05:03:30;13.50;99.90
26947;DHT22;14501;52.282;10.560;2022-08-21T05:05:59;13.50;99.90
26947;DHT22;14501;52.282;10.560;2022-08-21T05:08:26;13.50;99.90
26947;DHT22;14501;52.282;10.560;2022-08-21T05:10:53;13.60;99.90
26947;DHT22;14501;52.282;10.560;2022-08-21T05:13:19;13.80;99.90
26947;DHT22;14501;52.282;10.560;2022-08-21T05:15:45;13.70;99.90
26947;DHT22;14501;52.282;10.560;2022-08-21T05:18:11;13.90;99.90
26947;DHT22;14501;52.282;10.560;2022-08-21T05:20:37;13.90;99.90
26947;DHT22;14501;52.282;10.560;2022-08-21T05:23:08;14.10;99.90
26947;DHT22;14501;52.282;10.560;2022-08-21T05:25:34;14.10;99.90
26947;DHT22;14501;52.282;10.560;2022-08-21T05:27:59;14.20;99.90
26947;DHT22;14501;52.282;10.560;2022-08-21T05:30:25;14.30;99.90
26947;DHT22;14501;52.282;10.560;2022-08-21T05:32:56;14.60;99.90
26947;DHT22;14501;52.282;10.560;2022-08-21T05:35:22;14.60;99.90
26947;DHT22;14501;52.282;10.560;2022-08-21T05:37:48;14.80;99.90
26947;DHT22;14501;52.282;10.560;2022-08-21T05:40:13;15.00;99.90
26947;DHT22;14501;52.282;10.560;2022-08-21T05:42:39;15.20;99.90
26947;DHT22;14501;52.282;10.560;2022-08-21T05:45:05;15.40;99.90
26947;DHT22;14501;52.282;10.560;2022-08-21T05:47:31;15.60;99.90
26947;DHT22;14501;52.282;10.560;2022-08-21T05:49:56;15.70;99.90
26947;DHT22;14501;52.282;10.560;2022-08-21T05:52:23;15.80;99.90
26947;DHT22;14501;52.282;10.560;2022-08-21T05:54:49;16.00;99.90
26947;DHT22;14501;52.282;10.560;2022-08-21T05:57:15;16.30;99.90
26947;DHT22;14501;52.282;10.560;2022-08-21T05:59:40;16.50;99.90
26947;DHT22;14501;52.282;10.560;2022-08-21T06:02:06;16.80;99.90
26947;DHT22;14501;52.282;10.560;2022-08-21T06:04:38;17.10;99.90
26947;DHT22;14501;52.282;10.560;2022-08-21T06:07:04;18.00;99.90
26947;DHT22;14501;52.282;10.560;2022-08-21T06:09:30;19.30;99.90
26947;DHT22;14501;52.282;10.560;2022-08-21T06:11:56;20.10;99.90
26947;DHT22;14501;52.282;10.560;2022-08-21T06:14:21;21.40;99.90
26947;DHT22;14501;52.282;10.560;2022-08-21T06:16:47;22.20;99.90
26947;DHT22;14501;52.282;10.560;2022-08-21T06:19:13;23.70;99.90
26947;DHT22;14501;52.282;10.560;2022-08-21T06:21:38;24.30;99.90
26947;DHT22;14501;52.282;10.560;2022-08-21T06:24:05;23.10;99.90
26947;DHT22;14501;52.282;10.560;2022-08-21T06:26:32;23.00;99.90
26947;DHT22;14501;52.282;10.560;2022-08-21T06:28:58;22.50;99.90
26947;DHT22;14501;52.282;10.560;2022-08-21T06:31:26;22.00;99.90
26947;DHT22;14501;52.282;10.560;2022-08-21T06:33:52;21.50;99.90
26947;DHT22;14501;52.282;10.560;2022-08-21T06:36:17;21.40;99.90
26947;DHT22;14501;52.282;10.560;2022-08-21T06:38:43;21.70;99.90
26947;DHT22;14501;52.282;10.560;2022-08-21T06:41:10;21.80;99.90
26947;DHT22;14501;52.282;10.560;2022-08-21T06:43:36;22.00;99.90
26947;DHT22;14501;52.282;10.560;2022-08-21T06:46:02;22.20;99.90
26947;DHT22;14501;52.282;10.560;2022-08-21T06:48:27;22.10;99.90
26947;DHT22;14501;52.282;10.560;2022-08-21T06:50:55;22.00;99.90
26947;DHT22;14501;52.282;10.560;2022-08-21T06:53:21;22.10;99.90
26947;DHT22;14501;52.282;10.560;2022-08-21T06:55:48;21.90;99.90
26947;DHT22;14501;52.282;10.560;2022-08-21T06:58:14;22.00;99.90
26947;DHT22;14501;52.282;10.560;2022-08-21T07:00:44;21.80;99.90
26947;DHT22;14501;52.282;10.560;2022-08-21T07:03:37;21.60;99.90
26947;DHT22;14501;52.282;10.560;2022-08-21T07:06:05;21.50;99.90
26947;DHT22;14501;52.282;10.560;2022-08-21T07:08:31;21.50;99.90
26947;DHT22;14501;52.282;10.560;2022-08-21T07:10:58;21.80;99.90
26947;DHT22;14501;52.282;10.560;2022-08-21T07:13:24;22.10;99.90
26947;DHT22;14501;52.282;10.560;2022-08-21T07:15:50;22.30;99.90
26947;DHT22;14501;52.282;10.560;2022-08-21T07:18:16;22.80;99.90
26947;DHT22;14501;52.282;10.560;2022-08-21T07:20:43;23.70;99.90
26947;DHT22;14501;52.282;10.560;2022-08-21T07:23:12;25.60;99.90
26947;DHT22;14501;52.282;10.560;2022-08-21T07:25:39;26.90;99.90
26947;DHT22;14501;52.282;10.560;2022-08-21T07:28:04;26.60;99.90
26947;DHT22;14501;52.282;10.560;2022-08-21T07:30:31;26.40;99.90
26947;DHT22;14501;52.282;10.560;2022-08-21T07:32:57;25.70;99.90
26947;DHT22;14501;52.282;10.560;2022-08-21T07:35:22;25.20;99.90
26947;DHT22;14501;52.282;10.560;2022-08-21T07:37:48;24.50;99.90
26947;DHT22;14501;52.282;10.560;2022-08-21T07:40:15;24.30;99.90
26947;DHT22;14501;52.282;10.560;2022-08-21T07:42:42;24.00;99.90
26947;DHT22;14501;52.282;10.560;2022-08-21T07:45:09;23.70;99.90
26947;DHT22;14501;52.282;10.560;2022-08-21T07:47:35;23.40;99.90
26947;DHT22;14501;52.282;10.560;2022-08-21T07:50:00;23.40;99.90
26947;DHT22;14501;52.282;10.560;2022-08-21T07:52:26;23.30;99.90
26947;DHT22;14501;52.282;10.560;2022-08-21T07:54:52;23.50;99.90
26947;DHT22;14501;52.282;10.560;2022-08-21T07:57:18;23.60;99.90
26947;DHT22;14501;52.282;10.560;2022-08-21T07:59:44;24.40;99.90
26947;DHT22;14501;52.282;10.560;2022-08-21T08:02:09;27.30;99.90
26947;DHT22;14501;52.282;10.560;2022-08-21T08:04:35;29.70;99.90
26947;DHT22;14501;52.282;10.560;2022-08-21T08:07:00;30.80;99.90
26947;DHT22;14501;52.282;10.560;2022-08-21T08:09:26;31.50;96.80
26947;DHT22;14501;52.282;10.560;2022-08-21T08:11:52;31.70;95.40
26947;DHT22;14501;52.282;10.560;2022-08-21T08:14:17;31.30;92.50
26947;DHT22;14501;52.282;10.560;2022-08-21T08:16:43;31.00;92.40
26947;DHT22;14501;52.282;10.560;2022-08-21T08:19:08;30.80;92.90
26947;DHT22;14501;52.282;10.560;2022-08-21T08:21:34;30.70;90.60
26947;DHT22;14501;52.282;10.560;2022-08-21T08:24:02;29.80;91.60
26947;DHT22;14501;52.282;10.560;2022-08-21T08:26:27;29.60;91.90
26947;DHT22;14501;52.282;10.560;2022-08-21T08:28:53;29.00;92.90
26947;DHT22;14501;52.282;10.560;2022-08-21T08:31:19;28.80;93.90
26947;DHT22;14501;52.282;10.560;2022-08-21T08:33:44;28.80;93.70
26947;DHT22;14501;52.282;10.560;2022-08-21T08:36:17;29.00;94.00
26947;DHT22;14501;52.282;10.560;2022-08-21T08:38:44;30.30;94.10
26947;DHT22;14501;52.282;10.560;2022-08-21T08:41:17;32.50;93.00
26947;DHT22;14501;52.282;10.560;2022-08-21T08:43:55;35.20;89.80
26947;DHT22;14501;52.282;10.560;2022-08-21T08:46:35;36.70;81.70
26947;DHT22;14501;52.282;10.560;2022-08-21T08:51:47;39.60;73.20
26947;DHT22;14501;52.282;10.560;2022-08-21T08:54:25;40.10;71.20
26947;DHT22;14501;52.282;10.560;2022-08-21T08:57:00;40.30;70.30
26947;DHT22;14501;52.282;10.560;2022-08-21T08:59:35;40.50;70.30
26947;DHT22;14501;52.282;10.560;2022-08-21T09:02:01;40.50;69.60
26947;DHT22;14501;52.282;10.560;2022-08-21T09:04:28;41.80;67.30
26947;DHT22;14501;52.282;10.560;2022-08-21T09:15:36;43.80;61.50
26947;DHT22;14501;52.282;10.560;2022-08-21T09:29:18;44.60;59.00
26947;DHT22;14501;52.282;10.560;2022-08-21T09:31:46;44.00;60.20
26947;DHT22;14501;52.282;10.560;2022-08-21T09:34:12;43.30;59.40
26947;DHT22;14501;52.282;10.560;2022-08-21T09:36:48;41.20;61.60
26947;DHT22;14501;52.282;10.560;2022-08-21T09:42:03;40.50;65.20
26947;DHT22;14501;52.282;10.560;2022-08-21T09:44:34;40.50;62.50
26947;DHT22;14501;52.282;10.560;2022-08-21T09:47:05;39.00;64.60
26947;DHT22;14501;52.282;10.560;2022-08-21T09:49:37;37.40;67.70
26947;DHT22;14501;52.282;10.560;2022-08-21T09:52:06;37.60;69.00
26947;DHT22;14501;52.282;10.560;2022-08-21T09:54:40;38.80;67.80
26947;DHT22;14501;52.282;10.560;2022-08-21T09:59:53;41.80;60.20
26947;DHT22;14501;52.282;10.560;2022-08-21T10:05:00;43.00;57.30
26947;DHT22;14501;52.282;10.560;2022-08-21T10:07:29;42.50;57.30
26947;DHT22;14501;52.282;10.560;2022-08-21T10:10:07;42.80;58.00
26947;DHT22;14501;52.282;10.560;2022-08-21T10:15:51;43.30;57.40
26947;DHT22;14501;52.282;10.560;2022-08-21T10:22:14;42.80;55.50
26947;DHT22;14501;52.282;10.560;2022-08-21T10:28:12;41.30;56.10
26947;DHT22;14501;52.282;10.560;2022-08-21T10:30:56;40.30;56.40
26947;DHT22;14501;52.282;10.560;2022-08-21T10:41:45;35.60;64.00
26947;DHT22;14501;52.282;10.560;2022-08-21T10:47:30;33.90;66.80
26947;DHT22;14501;52.282;10.560;2022-08-21T10:52:46;31.80;72.30
26947;DHT22;14501;52.282;10.560;2022-08-21T10:55:31;31.40;73.90
26947;DHT22;14501;52.282;10.560;2022-08-21T10:58:02;31.50;71.80
26947;DHT22;14501;52.282;10.560;2022-08-21T11:00:35;31.50;74.00
26947;DHT22;14501;52.282;10.560;2022-08-21T11:03:25;31.80;71.40
26947;DHT22;14501;52.282;10.560;2022-08-21T11:08:42;32.40;72.70
26947;DHT22;14501;52.282;10.560;2022-08-21T11:13:54;31.00;75.30
26947;DHT22;14501;52.282;10.560;2022-08-21T11:19:20;30.30;74.30
26947;DHT22;14501;52.282;10.560;2022-08-21T11:22:18;29.90;77.20
26947;DHT22;14501;52.282;10.560;2022-08-21T11:30:06;29.50;74.90
26947;DHT22;14501;52.282;10.560;2022-08-21T11:32:56;29.40;79.60
26947;DHT22;14501;52.282;10.560;2022-08-21T11:57:04;30.70;73.90
26947;DHT22;14501;52.282;10.560;2022-08-21T12:02:23;29.70;77.50
26947;DHT22;14501;52.282;10.560;2022-08-21T12:04:56;29.60;78.40
26947;DHT22;14501;52.282;10.560;2022-08-21T12:07:38;29.90;80.80
26947;DHT22;14501;52.282;10.560;2022-08-21T12:10:07;30.20;76.60
26947;DHT22;14501;52.282;10.560;2022-08-21T12:12:36;30.60;75.30
26947;DHT22;14501;52.282;10.560;2022-08-21T12:15:27;30.90;75.80
26947;DHT22;14501;52.282;10.560;2022-08-21T12:18:02;31.00;77.00
26947;DHT22;14501;52.282;10.560;2022-08-21T12:20:38;31.20;75.00
26947;DHT22;14501;52.282;10.560;2022-08-21T12:26:02;31.00;73.10
26947;DHT22;14501;52.282;10.560;2022-08-21T12:28:29;31.10;76.20
26947;DHT22;14501;52.282;10.560;2022-08-21T12:30:57;31.20;74.40
26947;DHT22;14501;52.282;10.560;2022-08-21T12:33:40;31.10;69.40
26947;DHT22;14501;52.282;10.560;2022-08-21T12:36:09;31.20;72.50
26947;DHT22;14501;52.282;10.560;2022-08-21T12:38:52;31.10;69.30
26947;DHT22;14501;52.282;10.560;2022-08-21T12:41:32;31.20;69.40
26947;DHT22;14501;52.282;10.560;2022-08-21T12:44:07;31.40;72.70
26947;DHT22;14501;52.282;10.560;2022-08-21T12:46:58;31.80;71.40
26947;DHT22;14501;52.282;10.560;2022-08-21T12:49:35;31.90;71.30
26947;DHT22;14501;52.282;10.560;2022-08-21T12:52:24;31.90;67.90
26947;DHT22;14501;52.282;10.560;2022-08-21T12:54:50;32.00;69.90
26947;DHT22;14501;52.282;10.560;2022-08-21T12:57:27;31.90;68.60
26947;DHT22;14501;52.282;10.560;2022-08-21T13:00:03;32.20;70.10
26947;DHT22;14501;52.282;10.560;2022-08-21T13:02:35;31.80;69.00
26947;DHT22;14501;52.282;10.560;2022-08-21T13:05:05;32.00;69.40
26947;DHT22;14501;52.282;10.560;2022-08-21T13:07:33;31.90;70.20
26947;DHT22;14501;52.282;10.560;2022-08-21T13:10:22;31.90;69.00
26947;DHT22;14501;52.282;10.560;2022-08-21T13:12:48;31.80;68.40
26947;DHT22;14501;52.282;10.560;2022-08-21T13:15:15;31.50;66.40
26947;DHT22;14501;52.282;10.560;2022-08-21T13:17:48;31.30;69.40
26947;DHT22;14501;52.282;10.560;2022-08-21T13:20:25;31.00;67.70
26947;DHT22;14501;52.282;10.560;2022-08-21T13:22:51;30.90;68.80
26947;DHT22;14501;52.282;10.560;2022-08-21T13:25:19;31.20;72.10
26947;DHT22;14501;52.282;10.560;2022-08-21T13:28:19;31.30;67.50
26947;DHT22;14501;52.282;10.560;2022-08-21T13:30:48;31.30;66.20
26947;DHT22;14501;52.282;10.560;2022-08-21T13:33:17;31.40;67.90
26947;DHT22;14501;52.282;10.560;2022-08-21T13:38:28;31.00;67.90
26947;DHT22;14501;52.282;10.560;2022-08-21T13:40:58;30.90;69.00
26947;DHT22;14501;52.282;10.560;2022-08-21T13:43:32;30.60;68.30
26947;DHT22;14501;52.282;10.560;2022-08-21T13:46:00;30.40;70.00
26947;DHT22;14501;52.282;10.560;2022-08-21T13:48:29;30.00;69.30
26947;DHT22;14501;52.282;10.560;2022-08-21T13:50:57;29.40;68.50
26947;DHT22;14501;52.282;10.560;2022-08-21T13:55:52;29.00;72.20
26947;DHT22;14501;52.282;10.560;2022-08-21T14:00:50;28.60;73.10
26947;DHT22;14501;52.282;10.560;2022-08-21T14:03:43;28.70;73.80
26947;DHT22;14501;52.282;10.560;2022-08-21T14:06:22;28.80;73.10
26947;DHT22;14501;52.282;10.560;2022-08-21T14:11:19;29.50;73.80
26947;DHT22;14501;52.282;10.560;2022-08-21T14:14:17;29.70;72.80
26947;DHT22;14501;52.282;10.560;2022-08-21T14:16:52;30.00;70.80
26947;DHT22;14501;52.282;10.560;2022-08-21T14:19:28;29.90;70.60
26947;DHT22;14501;52.282;10.560;2022-08-21T14:21:53;29.90;71.50
26947;DHT22;14501;52.282;10.560;2022-08-21T14:29:25;29.90;71.60
26947;DHT22;14501;52.282;10.560;2022-08-21T14:31:57;29.80;70.70
26947;DHT22;14501;52.282;10.560;2022-08-21T14:34:25;29.80;70.50
26947;DHT22;14501;52.282;10.560;2022-08-21T14:36:53;29.30;69.30
26947;DHT22;14501;52.282;10.560;2022-08-21T14:39:19;29.30;70.70
26947;DHT22;14501;52.282;10.560;2022-08-21T14:41:45;29.30;68.30
26947;DHT22;14501;52.282;10.560;2022-08-21T14:44:18;29.20;71.00
26947;DHT22;14501;52.282;10.560;2022-08-21T14:46:44;29.10;71.60
26947;DHT22;14501;52.282;10.560;2022-08-21T14:49:11;29.00;72.20
26947;DHT22;14501;52.282;10.560;2022-08-21T14:51:37;28.80;72.50
26947;DHT22;14501;52.282;10.560;2022-08-21T14:54:05;28.80;74.40
26947;DHT22;14501;52.282;10.560;2022-08-21T14:56:31;28.80;73.80
26947;DHT22;14501;52.282;10.560;2022-08-21T14:59:02;28.80;72.90
26947;DHT22;14501;52.282;10.560;2022-08-21T15:01:28;28.70;73.60
26947;DHT22;14501;52.282;10.560;2022-08-21T15:03:54;28.60;72.70
26947;DHT22;14501;52.282;10.560;2022-08-21T15:06:20;28.60;73.80
26947;DHT22;14501;52.282;10.560;2022-08-21T15:08:47;28.70;72.20
26947;DHT22;14501;52.282;10.560;2022-08-21T15:11:20;28.60;73.20
26947;DHT22;14501;52.282;10.560;2022-08-21T15:13:46;28.70;73.10
26947;DHT22;14501;52.282;10.560;2022-08-21T15:16:12;28.70;73.80
26947;DHT22;14501;52.282;10.560;2022-08-21T15:18:39;28.90;71.60
26947;DHT22;14501;52.282;10.560;2022-08-21T15:21:05;29.00;70.70
26947;DHT22;14501;52.282;10.560;2022-08-21T15:23:30;28.90;70.60
26947;DHT22;14501;52.282;10.560;2022-08-21T15:25:56;28.90;72.10
26947;DHT22;14501;52.282;10.560;2022-08-21T15:28:25;28.70;71.90
26947;DHT22;14501;52.282;10.560;2022-08-21T15:30:51;28.50;72.70
26947;DHT22;14501;52.282;10.560;2022-08-21T15:33:18;27.90;73.50
26947;DHT22;14501;52.282;10.560;2022-08-21T15:35:44;27.80;74.40
26947;DHT22;14501;52.282;10.560;2022-08-21T15:38:12;27.60;74.00
26947;DHT22;14501;52.282;10.560;2022-08-21T15:40:38;27.40;75.30
26947;DHT22;14501;52.282;10.560;2022-08-21T15:43:05;27.30;74.70
26947;DHT22;14501;52.282;10.560;2022-08-21T15:45:31;27.20;75.70
26947;DHT22;14501;52.282;10.560;2022-08-21T15:47:57;27.20;75.70
26947;DHT22;14501;52.282;10.560;2022-08-21T15:50:25;26.90;75.90
26947;DHT22;14501;52.282;10.560;2022-08-21T15:52:51;26.90;75.20
26947;DHT22;14501;52.282;10.560;2022-08-21T15:55:17;26.80;75.90
26947;DHT22;14501;52.282;10.560;2022-08-21T15:57:47;26.80;76.20
26947;DHT22;14501;52.282;10.560;2022-08-21T16:00:18;26.70;76.70
26947;DHT22;14501;52.282;10.560;2022-08-21T16:02:48;26.60;77.60
26947;DHT22;14501;52.282;10.560;2022-08-21T16:05:16;26.30;77.00
26947;DHT22;14501;52.282;10.560;2022-08-21T16:07:43;26.20;78.10
26947;DHT22;14501;52.282;10.560;2022-08-21T16:10:09;26.00;80.90
26947;DHT22;14501;52.282;10.560;2022-08-21T16:12:38;25.80;79.30
26947;DHT22;14501;52.282;10.560;2022-08-21T16:15:07;25.50;79.00
26947;DHT22;14501;52.282;10.560;2022-08-21T16:17:36;25.40;81.00
26947;DHT22;14501;52.282;10.560;2022-08-21T16:20:06;25.20;81.90
26947;DHT22;14501;52.282;10.560;2022-08-21T16:22:32;25.00;81.10
26947;DHT22;14501;52.282;10.560;2022-08-21T16:24:57;25.00;83.80
26947;DHT22;14501;52.282;10.560;2022-08-21T16:27:23;25.00;83.10
26947;DHT22;14501;52.282;10.560;2022-08-21T16:29:49;25.00;81.70
26947;DHT22;14501;52.282;10.560;2022-08-21T16:32:16;25.00;82.00
26947;DHT22;14501;52.282;10.560;2022-08-21T16:34:46;25.10;82.70
26947;DHT22;14501;52.282;10.560;2022-08-21T16:37:14;25.20;82.30
26947;DHT22;14501;52.282;10.560;2022-08-21T16:39:40;25.40;83.30
26947;DHT22;14501;52.282;10.560;2022-08-21T16:42:07;25.50;81.60
26947;DHT22;14501;52.282;10.560;2022-08-21T16:44:35;25.60;80.20
26947;DHT22;14501;52.282;10.560;2022-08-21T16:47:01;25.60;81.30
26947;DHT22;14501;52.282;10.560;2022-08-21T16:49:27;25.70;80.70
26947;DHT22;14501;52.282;10.560;2022-08-21T16:51:52;25.70;81.50
26947;DHT22;14501;52.282;10.560;2022-08-21T16:54:18;25.50;80.80
26947;DHT22;14501;52.282;10.560;2022-08-21T16:56:44;25.50;81.90
26947;DHT22;14501;52.282;10.560;2022-08-21T16:59:11;25.40;81.60
26947;DHT22;14501;52.282;10.560;2022-08-21T17:01:38;25.30;82.30
26947;DHT22;14501;52.282;10.560;2022-08-21T17:04:04;25.10;80.90
26947;DHT22;14501;52.282;10.560;2022-08-21T17:06:30;25.00;82.70
26947;DHT22;14501;52.282;10.560;2022-08-21T17:08:57;24.90;85.40
26947;DHT22;14501;52.282;10.560;2022-08-21T17:11:49;24.80;83.90
26947;DHT22;14501;52.282;10.560;2022-08-21T17:14:19;24.60;83.50
26947;DHT22;14501;52.282;10.560;2022-08-21T17:16:49;24.50;83.80
26947;DHT22;14501;52.282;10.560;2022-08-21T17:19:15;24.40;84.70
26947;DHT22;14501;52.282;10.560;2022-08-21T17:21:41;24.30;84.90
26947;DHT22;14501;52.282;10.560;2022-08-21T17:24:07;24.00;85.00
26947;DHT22;14501;52.282;10.560;2022-08-21T17:26:33;23.90;85.50